Time;durP1;ratioP1;P1;durP2;ratioP2;P2;SDS_P1;SDS_P2;PMS_P1;PMS_P2;Temp;Humidity;BMP_temperature;BMP_pressure;BME280_temperature;BME280_humidity;BME280_pressure;Samples;Min_cycle;Max_cycle;Signal;HPM_P1;HPM_P2
2023/09/14 00:00:35;;;;;;;4.50;2.40;;;;;;;;;;5077472;28;20071;-83
2023/09/14 00:03:02;;;;;;;5.18;2.85;;;;;;;;;;5078054;28;20126;-83
2023/09/14 00:05:30;;;;;;;5.60;2.67;;;;;;;;;;5061613;28;20454;-83
2023/09/14 00:07:56;;;;;;;5.07;2.92;;;;;;;;;;5077591;28;20113;-83
2023/09/14 00:10:24;;;;;;;3.22;1.98;;;;;;;;;;5078255;28;20089;-83
2023/09/14 00:12:52;;;;;;;5.50;2.55;;;;;;;;;;5061009;28;20051;-83
2023/09/14 00:15:18;;;;;;;8.07;3.17;;;;;;;;;;5061124;28;20063;-83
2023/09/14 00:17:44;;;;;;;7.63;3.30;;;;;;;;;;5076593;28;20078;-83
2023/09/14 00:20:11;;;;;;;6.78;3.00;;;;;;;;;;5077381;28;20083;-83
2023/09/14 00:22:37;;;;;;;3.63;2.50;;;;;;;;;;5077633;28;20048;-83
2023/09/14 00:25:03;;;;;;;6.03;2.25;;;;;;;;;;5044132;28;20475;-83
2023/09/14 00:27:29;;;;;;;4.10;2.50;;;;;;;;;;5077635;28;20048;-83
2023/09/14 00:29:55;;;;;;;6.35;2.95;;;;;;;;;;5060648;28;20051;-83
2023/09/14 00:32:21;;;;;;;6.07;2.63;;;;;;;;;;5060723;28;20048;-83
2023/09/14 00:34:48;;;;;;;6.63;3.20;;;;;;;;;;5077226;28;20047;-83
2023/09/14 00:37:14;;;;;;;6.85;2.78;;;;;;;;;;5060574;28;20044;-82
2023/09/14 00:39:40;;;;;;;5.97;2.70;;;;;;;;;;5060499;28;20048;-83
2023/09/14 00:42:06;;;;;;;8.50;3.20;;;;;;;;;;5076695;28;20086;-83
2023/09/14 00:44:32;;;;;;;8.15;2.97;;;;;;;;;;5061041;28;20547;-83
2023/09/14 00:46:58;;;;;;;4.95;3.03;;;;;;;;;;5044146;28;20089;-83
2023/09/14 00:49:24;;;;;;;4.82;2.63;;;;;;;;;;5060640;28;20048;-83
2023/09/14 00:51:51;;;;;;;4.40;3.05;;;;;;;;;;5060868;28;20056;-83
2023/09/14 00:54:17;;;;;;;8.30;2.88;;;;;;;;;;5060483;28;20079;-83
2023/09/14 00:56:43;;;;;;;4.63;2.85;;;;;;;;;;5077706;28;20051;-83
2023/09/14 00:59:09;;;;;;;4.45;2.25;;;;;;;;;;5076635;28;20122;-83
2023/09/14 01:01:36;;;;;;;3.67;2.40;;;;;;;;;;5060203;28;20036;-84
2023/09/14 01:04:02;;;;;;;7.10;2.95;;;;;;;;;;5060404;28;20048;-83
2023/09/14 01:06:30;;;;;;;6.32;3.13;;;;;;;;;;5077369;28;20550;-83
2023/09/14 01:08:57;;;;;;;3.92;2.97;;;;;;;;;;5077044;28;20044;-83
2023/09/14 01:11:23;;;;;;;5.50;3.35;;;;;;;;;;5060202;28;20427;-83
2023/09/14 01:14:00;;;;;;;3.78;2.90;;;;;;;;;;5043438;28;20407;-83
2023/09/14 01:16:45;;;;;;;4.82;3.13;;;;;;;;;;5060423;28;20052;-82
2023/09/14 01:19:23;;;;;;;4.53;3.10;;;;;;;;;;5076888;28;20044;-83
2023/09/14 01:21:52;;;;;;;7.00;2.67;;;;;;;;;;5077127;28;20143;-83
2023/09/14 01:24:23;;;;;;;2.53;1.80;;;;;;;;;;5076859;28;20493;-83
2023/09/14 01:26:49;;;;;;;4.53;3.25;;;;;;;;;;5060623;28;20052;-83
2023/09/14 01:29:15;;;;;;;4.15;2.92;;;;;;;;;;5078488;28;20044;-83
2023/09/14 01:31:42;;;;;;;6.72;3.15;;;;;;;;;;5063967;28;20040;-83
2023/09/14 01:34:08;;;;;;;4.68;2.58;;;;;;;;;;5063867;28;20044;-83
2023/09/14 01:36:43;;;;;;;4.88;3.08;;;;;;;;;;5047874;28;20048;-83
2023/09/14 01:39:11;;;;;;;5.78;3.05;;;;;;;;;;5080613;28;20469;-83
2023/09/14 01:41:37;;;;;;;6.22;3.10;;;;;;;;;;5063423;28;20067;-82
2023/09/14 01:44:04;;;;;;;4.78;2.75;;;;;;;;;;5063778;28;20467;-83
2023/09/14 01:46:32;;;;;;;3.85;2.42;;;;;;;;;;5063577;28;20054;-83
2023/09/14 01:48:58;;;;;;;4.70;2.50;;;;;;;;;;5064164;28;20058;-83
2023/09/14 01:51:24;;;;;;;6.28;2.65;;;;;;;;;;5063874;28;20050;-83
2023/09/14 01:53:50;;;;;;;8.55;3.95;;;;;;;;;;5047286;28;20058;-83
2023/09/14 01:56:17;;;;;;;5.20;2.72;;;;;;;;;;5046814;28;20048;-83
2023/09/14 01:58:43;;;;;;;9.55;3.60;;;;;;;;;;5080340;28;20040;-82
2023/09/14 02:01:09;;;;;;;8.55;3.08;;;;;;;;;;5080735;28;20071;-83
2023/09/14 02:03:35;;;;;;;8.20;3.35;;;;;;;;;;5063709;28;20047;-83
2023/09/14 02:06:02;;;;;;;5.40;3.05;;;;;;;;;;5046809;28;20056;-83
2023/09/14 02:08:31;;;;;;;5.93;2.58;;;;;;;;;;5080421;28;20048;-83
2023/09/14 02:10:57;;;;;;;3.95;2.65;;;;;;;;;;5080026;28;20176;-83
2023/09/14 02:13:23;;;;;;;2.65;2.45;;;;;;;;;;5080594;28;20047;-83
2023/09/14 02:15:50;;;;;;;4.22;3.17;;;;;;;;;;5063856;28;20056;-83
2023/09/14 02:18:16;;;;;;;4.53;3.10;;;;;;;;;;5063307;28;20122;-83
2023/09/14 02:20:43;;;;;;;2.90;2.55;;;;;;;;;;5063976;28;20048;-83
2023/09/14 02:23:09;;;;;;;4.35;2.35;;;;;;;;;;5063628;28;20074;-83
2023/09/14 02:25:35;;;;;;;6.82;3.72;;;;;;;;;;5080034;28;20634;-84
2023/09/14 02:28:02;;;;;;;3.60;2.55;;;;;;;;;;5079513;28;20092;-83
2023/09/14 02:30:28;;;;;;;4.18;2.88;;;;;;;;;;5062942;28;20048;-83
2023/09/14 02:32:55;;;;;;;5.90;3.10;;;;;;;;;;5062883;28;20488;-83
2023/09/14 02:35:21;;;;;;;6.90;3.28;;;;;;;;;;5063070;28;20484;-83
2023/09/14 02:37:47;;;;;;;7.18;3.60;;;;;;;;;;5046482;28;20059;-83
2023/09/14 02:40:13;;;;;;;4.82;2.67;;;;;;;;;;5062510;28;20476;-83
2023/09/14 02:42:39;;;;;;;4.18;2.50;;;;;;;;;;5062976;28;20117;-83
2023/09/14 02:45:05;;;;;;;5.82;2.20;;;;;;;;;;5080045;28;20044;-83
2023/09/14 02:47:32;;;;;;;2.42;1.75;;;;;;;;;;5062709;28;20055;-83
2023/09/14 02:50:01;;;;;;;4.05;1.95;;;;;;;;;;5046404;28;20085;-83
2023/09/14 02:52:27;;;;;;;3.25;2.22;;;;;;;;;;5061862;28;20048;-83
2023/09/14 02:54:53;;;;;;;4.32;2.83;;;;;;;;;;5062483;28;20055;-83
2023/09/14 02:57:19;;;;;;;4.32;2.60;;;;;;;;;;5062616;28;20098;-83
2023/09/14 02:59:46;;;;;;;3.05;2.03;;;;;;;;;;5062424;28;20078;-83
2023/09/14 03:02:12;;;;;;;5.03;2.38;;;;;;;;;;5062407;28;20056;-83
2023/09/14 03:04:38;;;;;;;7.32;2.05;;;;;;;;;;5062316;28;20048;-83
2023/09/14 03:07:04;;;;;;;2.28;1.17;;;;;;;;;;5062381;28;20496;-83
2023/09/14 03:09:30;;;;;;;3.40;1.88;;;;;;;;;;5062329;28;20048;-83
2023/09/14 03:11:56;;;;;;;2.25;1.42;;;;;;;;;;5062554;28;20047;-83
2023/09/14 03:14:22;;;;;;;4.88;1.80;;;;;;;;;;5078531;28;20083;-83
2023/09/14 03:16:51;;;;;;;3.20;1.73;;;;;;;;;;5062551;28;20051;-83
2023/09/14 03:19:17;;;;;;;1.98;1.20;;;;;;;;;;5061761;28;20055;-83
2023/09/14 03:21:43;;;;;;;1.92;1.27;;;;;;;;;;5078618;28;20044;-83
2023/09/14 03:24:09;;;;;;;2.47;1.73;;;;;;;;;;5045762;28;20048;-83
2023/09/14 03:26:35;;;;;;;1.75;1.45;;;;;;;;;;5078967;28;20565;-83
2023/09/14 03:29:01;;;;;;;3.40;1.25;;;;;;;;;;5077655;28;20101;-83
2023/09/14 03:31:28;;;;;;;3.40;1.17;;;;;;;;;;5078028;28;20059;-83
2023/09/14 03:33:54;;;;;;;3.58;1.35;;;;;;;;;;5077522;28;20087;-83
2023/09/14 03:36:21;;;;;;;3.38;1.50;;;;;;;;;;5061676;28;20040;-83
2023/09/14 03:38:47;;;;;;;2.58;1.20;;;;;;;;;;5077696;28;20051;-83
2023/09/14 03:41:13;;;;;;;2.95;1.10;;;;;;;;;;5077627;28;20123;-82
2023/09/14 03:43:40;;;;;;;1.88;1.38;;;;;;;;;;5058858;28;20443;-83
2023/09/14 03:46:06;;;;;;;2.67;1.73;;;;;;;;;;5041557;28;20131;-83
2023/09/14 03:48:32;;;;;;;2.05;1.73;;;;;;;;;;5058489;28;20052;-83
2023/09/14 03:51:01;;;;;;;4.80;1.83;;;;;;;;;;5041608;28;20049;-82
2023/09/14 03:53:30;;;;;;;3.17;2.10;;;;;;;;;;5025596;28;20049;-83
2023/09/14 03:55:59;;;;;;;4.85;2.78;;;;;;;;;;5025118;28;20500;-83
2023/09/14 03:58:26;;;;;;;5.13;2.45;;;;;;;;;;5057672;28;20049;-83
2023/09/14 04:00:52;;;;;;;2.25;1.88;;;;;;;;;;5058401;28;20044;-82
2023/09/14 04:03:18;;;;;;;2.38;1.70;;;;;;;;;;5057600;28;20041;-83
2023/09/14 04:05:44;;;;;;;2.92;2.17;;;;;;;;;;5041519;28;20540;-83
2023/09/14 04:08:10;;;;;;;5.05;2.25;;;;;;;;;;5057851;28;20046;-83
2023/09/14 04:10:40;;;;;;;4.82;2.08;;;;;;;;;;5041568;28;20055;-83
2023/09/14 04:13:29;;;;;;;4.07;1.92;;;;;;;;;;5058100;28;20449;-83
2023/09/14 04:15:56;;;;;;;3.13;2.00;;;;;;;;;;5057885;28;20091;-83
2023/09/14 04:18:22;;;;;;;2.33;1.70;;;;;;;;;;5040777;28;20044;-83
2023/09/14 04:20:48;;;;;;;2.80;2.17;;;;;;;;;;5057395;28;20110;-83
2023/09/14 04:23:14;;;;;;;2.60;1.45;;;;;;;;;;5040999;28;20136;-83
2023/09/14 04:25:46;;;;;;;2.63;1.92;;;;;;;;;;5057168;28;20272;-83
2023/09/14 04:28:16;;;;;;;5.00;2.50;;;;;;;;;;5056722;28;20135;-83
2023/09/14 04:30:50;;;;;;;3.00;2.15;;;;;;;;;;5041074;28;20044;-83
2023/09/14 04:33:17;;;;;;;4.23;2.57;;;;;;;;;;5041236;28;20063;-83
2023/09/14 04:35:43;;;;;;;3.92;2.05;;;;;;;;;;5041200;28;20297;-83
2023/09/14 04:38:09;;;;;;;2.83;2.42;;;;;;;;;;5057697;28;20083;-83
2023/09/14 04:40:39;;;;;;;3.10;2.38;;;;;;;;;;5040705;28;20044;-83
2023/09/14 04:43:06;;;;;;;5.60;2.90;;;;;;;;;;5073201;28;20496;-83
2023/09/14 04:45:32;;;;;;;5.45;2.22;;;;;;;;;;5077849;28;20055;-83
2023/09/14 04:47:59;;;;;;;4.35;2.78;;;;;;;;;;5044606;28;20047;-83
2023/09/14 04:50:25;;;;;;;4.18;3.00;;;;;;;;;;5077680;28;20130;-83
2023/09/14 04:52:51;;;;;;;6.75;3.88;;;;;;;;;;5060624;28;20098;-83
2023/09/14 04:55:17;;;;;;;5.80;3.70;;;;;;;;;;5076826;28;20119;-83
2023/09/14 04:57:43;;;;;;;5.63;2.75;;;;;;;;;;5060927;28;20048;-83
2023/09/14 05:00:10;;;;;;;5.68;4.03;;;;;;;;;;5059686;28;20052;-83
2023/09/14 05:02:36;;;;;;;4.20;3.75;;;;;;;;;;5060194;28;20044;-83
2023/09/14 05:05:03;;;;;;;3.47;3.17;;;;;;;;;;5076717;28;20037;-83
2023/09/14 05:07:29;;;;;;;3.05;2.70;;;;;;;;;;5059900;28;20048;-83
2023/09/14 05:09:56;;;;;;;4.32;3.92;;;;;;;;;;5060021;28;20388;-83
2023/09/14 05:12:22;;;;;;;5.35;3.55;;;;;;;;;;5059920;28;20134;-83
2023/09/14 05:14:48;;;;;;;4.35;3.50;;;;;;;;;;5060007;28;20426;-82
2023/09/14 05:17:14;;;;;;;5.20;3.40;;;;;;;;;;5076636;28;20040;-82
2023/09/14 05:19:41;;;;;;;4.05;3.40;;;;;;;;;;5059650;28;20040;-83
2023/09/14 05:22:07;;;;;;;3.40;3.10;;;;;;;;;;5060028;28;20055;-82
2023/09/14 05:24:33;;;;;;;5.65;3.35;;;;;;;;;;5060274;28;20040;-83
2023/09/14 05:27:00;;;;;;;6.75;3.50;;;;;;;;;;5076366;28;20134;-83
2023/09/14 05:29:26;;;;;;;4.43;2.60;;;;;;;;;;5060044;28;20415;-82
2023/09/14 05:31:52;;;;;;;3.17;2.90;;;;;;;;;;5076250;28;20139;-82
2023/09/14 05:34:18;;;;;;;3.65;3.40;;;;;;;;;;5076249;28;20504;-83
2023/09/14 05:36:44;;;;;;;6.78;4.30;;;;;;;;;;5076575;28;20143;-82
2023/09/14 05:39:12;;;;;;;3.63;3.33;;;;;;;;;;5056477;28;20052;-83
2023/09/14 05:41:40;;;;;;;6.07;3.85;;;;;;;;;;5052280;28;20065;-83
2023/09/14 05:44:10;;;;;;;5.85;3.47;;;;;;;;;;5054265;28;20049;-82
2023/09/14 05:46:36;;;;;;;4.68;3.13;;;;;;;;;;5004086;28;20095;-82
2023/09/14 05:49:03;;;;;;;5.15;3.15;;;;;;;;;;5053098;28;20053;-83
2023/09/14 05:51:29;;;;;;;3.60;3.17;;;;;;;;;;5036409;28;20053;-83
2023/09/14 05:53:55;;;;;;;5.63;3.63;;;;;;;;;;5052919;28;20536;-83
2023/09/14 05:56:21;;;;;;;3.83;3.42;;;;;;;;;;5020187;28;20045;-83
2023/09/14 05:58:47;;;;;;;6.32;3.75;;;;;;;;;;5019310;28;20048;-83
2023/09/14 06:01:14;;;;;;;5.57;4.30;;;;;;;;;;5019696;28;20037;-82
2023/09/14 06:03:40;;;;;;;8.50;4.28;;;;;;;;;;5052792;28;20057;-82
2023/09/14 06:06:06;;;;;;;7.03;3.42;;;;;;;;;;5053015;28;20059;-82
2023/09/14 06:08:32;;;;;;;4.18;3.70;;;;;;;;;;5052584;28;20045;-82
2023/09/14 06:10:59;;;;;;;4.57;3.78;;;;;;;;;;5003634;28;20057;-82
2023/09/14 06:13:25;;;;;;;4.25;3.17;;;;;;;;;;5019681;28;20045;-82
2023/09/14 06:15:51;;;;;;;3.45;2.75;;;;;;;;;;5003940;28;20049;-82
2023/09/14 06:18:18;;;;;;;4.45;3.55;;;;;;;;;;5023013;28;20041;-82
2023/09/14 06:20:44;;;;;;;6.35;4.13;;;;;;;;;;5056000;28;20041;-82
2023/09/14 06:23:10;;;;;;;4.75;3.45;;;;;;;;;;5056055;28;20140;-82
2023/09/14 06:25:36;;;;;;;4.20;3.58;;;;;;;;;;5056383;28;20084;-83
2023/09/14 06:28:02;;;;;;;4.68;4.28;;;;;;;;;;5023355;28;20048;-82
2023/09/14 06:30:28;;;;;;;3.85;3.55;;;;;;;;;;5055520;28;20094;-83
2023/09/14 06:32:54;;;;;;;3.90;3.50;;;;;;;;;;5023716;28;20080;-82
2023/09/14 06:35:20;;;;;;;5.20;2.90;;;;;;;;;;5018384;28;20070;-83
2023/09/14 06:37:46;;;;;;;3.80;2.50;;;;;;;;;;5057776;28;20045;-83
2023/09/14 06:40:14;;;;;;;7.68;4.75;;;;;;;;;;5038500;28;20134;-83
2023/09/14 06:42:44;;;;;;;5.22;3.20;;;;;;;;;;5031865;28;20056;-82
2023/09/14 06:45:10;;;;;;;5.40;4.90;;;;;;;;;;5051329;28;20060;-83
2023/09/14 06:47:36;;;;;;;5.85;5.35;;;;;;;;;;5042747;28;20049;-83
2023/09/14 06:50:03;;;;;;;5.72;4.35;;;;;;;;;;5058902;28;20080;-82
2023/09/14 06:52:32;;;;;;;5.20;4.70;;;;;;;;;;5058710;28;20048;-82
2023/09/14 06:54:58;;;;;;;5.95;5.35;;;;;;;;;;5059304;28;20048;-82
2023/09/14 06:57:24;;;;;;;5.38;3.17;;;;;;;;;;5058833;28;20439;-82
2023/09/14 06:59:50;;;;;;;5.38;3.72;;;;;;;;;;5058437;28;20114;-83
2023/09/14 07:02:16;;;;;;;4.10;3.10;;;;;;;;;;5058861;28;20075;-83
2023/09/14 07:04:42;;;;;;;4.95;2.88;;;;;;;;;;5058779;28;20044;-83
2023/09/14 07:07:08;;;;;;;5.10;2.22;;;;;;;;;;5025803;28;20109;-83
2023/09/14 07:09:35;;;;;;;2.90;2.70;;;;;;;;;;5058849;28;20475;-83
2023/09/14 07:12:02;;;;;;;4.13;2.75;;;;;;;;;;5041862;28;20388;-82
2023/09/14 07:14:28;;;;;;;2.58;2.13;;;;;;;;;;5058301;28;20052;-83
2023/09/14 07:16:55;;;;;;;2.90;2.60;;;;;;;;;;5052084;28;20044;-83
2023/09/14 07:19:26;;;;;;;5.18;3.05;;;;;;;;;;5040971;28;20087;-83
2023/09/14 07:21:54;;;;;;;4.00;2.85;;;;;;;;;;5057103;28;20090;-83
2023/09/14 07:24:21;;;;;;;7.32;3.65;;;;;;;;;;5045570;28;20052;-81
2023/09/14 07:26:47;;;;;;;7.43;4.15;;;;;;;;;;5077829;28;20059;-82
2023/09/14 07:29:14;;;;;;;7.20;3.90;;;;;;;;;;5037963;28;20091;-83
2023/09/14 07:31:40;;;;;;;3.63;3.30;;;;;;;;;;5038290;28;20152;-82
2023/09/14 07:34:06;;;;;;;8.18;2.97;;;;;;;;;;5037999;28;20076;-82
2023/09/14 07:36:33;;;;;;;6.13;2.90;;;;;;;;;;5038093;28;20535;-80
2023/09/14 07:38:59;;;;;;;10.07;3.25;;;;;;;;;;5037741;28;20052;-81
2023/09/14 07:41:28;;;;;;;6.70;2.60;;;;;;;;;;5037622;28;20037;-81
2023/09/14 07:43:54;;;;;;;4.13;2.20;;;;;;;;;;5021553;28;20053;-82
2023/09/14 07:46:21;;;;;;;8.98;2.45;;;;;;;;;;5021424;28;20041;-81
2023/09/14 07:48:47;;;;;;;5.05;1.65;;;;;;;;;;5038253;28;20389;-82
2023/09/14 07:51:13;;;;;;;6.28;1.90;;;;;;;;;;5037671;28;20105;-82
2023/09/14 07:53:39;;;;;;;9.50;2.40;;;;;;;;;;5037903;28;20052;-82
2023/09/14 07:56:05;;;;;;;7.35;2.92;;;;;;;;;;5020729;28;20049;-82
2023/09/14 07:58:31;;;;;;;6.28;2.58;;;;;;;;;;5005190;28;20183;-82
2023/09/14 08:00:57;;;;;;;6.57;3.35;;;;;;;;;;5037645;28;20053;-80
2023/09/14 08:03:25;;;;;;;7.82;2.72;;;;;;;;;;5037529;28;20084;-83
2023/09/14 08:05:52;;;;;;;6.68;2.33;;;;;;;;;;5038067;28;20044;-82
2023/09/14 08:08:19;;;;;;;5.63;2.13;;;;;;;;;;5037504;28;20056;-83
2023/09/14 08:10:55;;;;;;;6.40;2.17;;;;;;;;;;5037924;28;20056;-82
2023/09/14 08:13:21;;;;;;;7.03;2.05;;;;;;;;;;5021646;28;20048;-83
2023/09/14 08:15:48;;;;;;;8.85;2.00;;;;;;;;;;5037673;28;20047;-83
2023/09/14 08:18:14;;;;;;;6.03;1.95;;;;;;;;;;5037145;28;20048;-83
2023/09/14 08:20:43;;;;;;;7.03;1.70;;;;;;;;;;5038359;28;20182;-83
2023/09/14 08:23:13;;;;;;;6.93;1.38;;;;;;;;;;5021055;28;20040;-83
2023/09/14 08:25:44;;;;;;;4.18;0.88;;;;;;;;;;5021061;28;20511;-83
2023/09/14 08:28:14;;;;;;;4.82;1.13;;;;;;;;;;5022168;28;20045;-83
2023/09/14 08:30:41;;;;;;;6.43;1.02;;;;;;;;;;5052163;28;20051;-83
2023/09/14 08:33:07;;;;;;;6.18;1.27;;;;;;;;;;5040694;28;20045;-82
2023/09/14 08:35:35;;;;;;;7.13;0.70;;;;;;;;;;5057622;28;20438;-83
2023/09/14 08:38:03;;;;;;;6.20;1.08;;;;;;;;;;5056266;28;20047;-82
2023/09/14 08:40:30;;;;;;;10.77;1.00;;;;;;;;;;5040950;28;20055;-83
2023/09/14 08:42:56;;;;;;;6.25;0.98;;;;;;;;;;5061481;28;20407;-83
2023/09/14 08:45:27;;;;;;;5.35;0.80;;;;;;;;;;5060527;28;20052;-83
2023/09/14 08:47:54;;;;;;;6.43;0.80;;;;;;;;;;5077164;28;20368;-83
2023/09/14 08:50:27;;;;;;;8.73;0.75;;;;;;;;;;5061002;28;20048;-82
2023/09/14 08:52:53;;;;;;;4.43;0.60;;;;;;;;;;5077337;28;20051;-83
2023/09/14 08:55:20;;;;;;;4.38;0.90;;;;;;;;;;5077433;28;20537;-83
2023/09/14 08:57:47;;;;;;;6.22;0.88;;;;;;;;;;5060543;28;20094;-83
2023/09/14 09:00:20;;;;;;;5.18;0.90;;;;;;;;;;5076203;28;20093;-83
2023/09/14 09:02:46;;;;;;;6.35;0.73;;;;;;;;;;5077895;28;20075;-83
2023/09/14 09:05:14;;;;;;;5.93;0.60;;;;;;;;;;5060517;28;20055;-83
2023/09/14 09:07:41;;;;;;;3.53;0.70;;;;;;;;;;5076581;28;20132;-82
2023/09/14 09:10:27;;;;;;;5.55;0.60;;;;;;;;;;5077454;28;20048;-83
2023/09/14 09:12:58;;;;;;;2.70;0.50;;;;;;;;;;5060267;28;20082;-83
2023/09/14 09:15:24;;;;;;;6.00;0.60;;;;;;;;;;5077103;28;20048;-83
2023/09/14 09:18:12;;;;;;;3.05;0.50;;;;;;;;;;5077461;28;20044;-83
2023/09/14 09:20:45;;;;;;;4.72;0.45;;;;;;;;;;5076663;28;20051;-82
2023/09/14 09:23:13;;;;;;;4.28;0.70;;;;;;;;;;5077268;28;20080;-83
2023/09/14 09:25:44;;;;;;;2.60;0.40;;;;;;;;;;5060692;28;20055;-83
2023/09/14 09:28:10;;;;;;;4.85;0.60;;;;;;;;;;5076618;28;20434;-82
2023/09/14 09:30:36;;;;;;;5.28;0.65;;;;;;;;;;5040133;28;20079;-83
2023/09/14 09:33:03;;;;;;;4.18;0.60;;;;;;;;;;5056813;28;20036;-82
2023/09/14 09:35:30;;;;;;;2.85;0.40;;;;;;;;;;5056350;28;20052;-83
2023/09/14 09:37:57;;;;;;;6.72;0.77;;;;;;;;;;5056607;28;20044;-83
2023/09/14 09:40:28;;;;;;;3.70;0.60;;;;;;;;;;5074659;28;20052;-83
2023/09/14 09:42:55;;;;;;;4.03;0.80;;;;;;;;;;5054277;28;20056;-83
2023/09/14 09:45:23;;;;;;;5.90;0.70;;;;;;;;;;5036744;28;20056;-83
2023/09/14 09:47:49;;;;;;;3.92;0.45;;;;;;;;;;5036890;28;20061;-83
2023/09/14 09:50:16;;;;;;;4.15;0.70;;;;;;;;;;5022327;28;20049;-83
2023/09/14 09:52:42;;;;;;;4.78;0.52;;;;;;;;;;5023936;28;20057;-83
2023/09/14 09:55:16;;;;;;;3.88;0.63;;;;;;;;;;5024155;28;20071;-83
2023/09/14 09:57:49;;;;;;;4.40;0.60;;;;;;;;;;5040364;28;20053;-83
2023/09/14 10:00:16;;;;;;;6.93;0.63;;;;;;;;;;5039809;28;20044;-83
2023/09/14 10:02:42;;;;;;;6.30;0.70;;;;;;;;;;5039856;28;20052;-83
2023/09/14 10:05:09;;;;;;;4.80;0.70;;;;;;;;;;5039741;28;20102;-83
2023/09/14 10:07:37;;;;;;;4.53;0.40;;;;;;;;;;5023765;28;20508;-83
2023/09/14 10:10:04;;;;;;;4.00;0.73;;;;;;;;;;5023587;28;20136;-83
2023/09/14 10:12:31;;;;;;;3.97;0.60;;;;;;;;;;5040066;28;20055;-83
2023/09/14 10:15:04;;;;;;;5.53;0.60;;;;;;;;;;5040262;28;20099;-83
2023/09/14 10:17:31;;;;;;;7.32;0.77;;;;;;;;;;5023715;28;20155;-83
2023/09/14 10:20:01;;;;;;;4.32;0.70;;;;;;;;;;5023655;28;20053;-83
2023/09/14 10:22:28;;;;;;;4.47;0.50;;;;;;;;;;5040221;28;20131;-83
2023/09/14 10:24:58;;;;;;;4.97;0.63;;;;;;;;;;5008050;28;20102;-83
2023/09/14 10:27:25;;;;;;;5.43;0.65;;;;;;;;;;5024015;28;20048;-83
2023/09/14 10:29:52;;;;;;;5.65;0.80;;;;;;;;;;5057280;28;20048;-84
2023/09/14 10:32:19;;;;;;;5.78;0.90;;;;;;;;;;5006456;28;20497;-83
2023/09/14 10:34:46;;;;;;;4.30;0.70;;;;;;;;;;5022968;28;20044;-83
2023/09/14 10:37:12;;;;;;;2.90;0.45;;;;;;;;;;5007369;28;20500;-84
2023/09/14 10:39:38;;;;;;;2.83;0.60;;;;;;;;;;5039656;28;20087;-83
2023/09/14 10:42:05;;;;;;;7.40;0.50;;;;;;;;;;5039236;28;20041;-84
2023/09/14 10:44:32;;;;;;;4.97;0.60;;;;;;;;;;5038064;28;20068;-83
2023/09/14 10:46:59;;;;;;;4.93;0.47;;;;;;;;;;5059134;28;20044;-84
2023/09/14 10:49:28;;;;;;;5.85;0.95;;;;;;;;;;5042711;28;20056;-83
2023/09/14 10:51:55;;;;;;;2.78;0.77;;;;;;;;;;5059687;28;20045;-84
2023/09/14 10:54:28;;;;;;;6.10;0.80;;;;;;;;;;5026123;28;20048;-83
2023/09/14 10:56:58;;;;;;;5.57;0.93;;;;;;;;;;5062050;28;20056;-84
2023/09/14 10:59:53;;;;;;;4.55;0.60;;;;;;;;;;5075784;28;20113;-83
2023/09/14 11:02:41;;;;;;;5.13;0.60;;;;;;;;;;5080919;28;20056;-84
2023/09/14 11:05:11;;;;;;;5.10;0.70;;;;;;;;;;5084495;28;20130;-84
2023/09/14 11:07:37;;;;;;;4.70;0.63;;;;;;;;;;5099392;28;20040;-84
2023/09/14 11:10:04;;;;;;;4.30;0.70;;;;;;;;;;5099379;28;20502;-84
2023/09/14 11:12:30;;;;;;;4.10;0.63;;;;;;;;;;5083152;28;20051;-84
2023/09/14 11:15:16;;;;;;;4.88;0.60;;;;;;;;;;5099505;28;20043;-84
2023/09/14 11:17:42;;;;;;;4.80;0.50;;;;;;;;;;5083058;28;20047;-84
2023/09/14 11:20:29;;;;;;;5.57;0.70;;;;;;;;;;5083098;28;20043;-84
2023/09/14 11:23:13;;;;;;;3.53;0.60;;;;;;;;;;5068609;28;20055;-84
2023/09/14 11:25:41;;;;;;;4.80;0.73;;;;;;;;;;5117404;28;20550;-84
2023/09/14 11:28:27;;;;;;;4.72;0.80;;;;;;;;;;5099292;28;20043;-84
2023/09/14 11:30:53;;;;;;;5.90;0.90;;;;;;;;;;5081058;28;20051;-84
2023/09/14 11:33:21;;;;;;;8.48;0.68;;;;;;;;;;5081769;28;20396;-84
2023/09/14 11:35:48;;;;;;;5.85;0.90;;;;;;;;;;5099795;28;20043;-83
2023/09/14 11:38:21;;;;;;;3.53;0.85;;;;;;;;;;5098831;28;20135;-83
2023/09/14 11:40:47;;;;;;;2.13;0.70;;;;;;;;;;5099238;28;20046;-83
2023/09/14 11:45:47;;;;;;;2.70;0.93;;;;;;;;;;5098712;28;20061;-84
2023/09/14 11:48:14;;;;;;;4.60;0.70;;;;;;;;;;5098999;28;20043;-84
2023/09/14 11:50:44;;;;;;;5.15;0.60;;;;;;;;;;5082157;28;20442;-83
2023/09/14 11:53:12;;;;;;;5.68;0.85;;;;;;;;;;5081781;28;20055;-84
2023/09/14 11:55:39;;;;;;;6.82;0.80;;;;;;;;;;5099432;28;20131;-84
2023/09/14 11:58:06;;;;;;;3.88;0.60;;;;;;;;;;5099198;28;20097;-85
2023/09/14 12:00:39;;;;;;;3.42;0.60;;;;;;;;;;5097836;28;20040;-85
2023/09/14 12:03:06;;;;;;;8.60;1.00;;;;;;;;;;5081540;28;20131;-84
2023/09/14 12:05:32;;;;;;;3.72;0.40;;;;;;;;;;5098288;28;20066;-84
2023/09/14 12:07:59;;;;;;;3.63;0.80;;;;;;;;;;5098432;28;20043;-84
2023/09/14 12:10:25;;;;;;;2.55;0.77;;;;;;;;;;5081555;28;20097;-84
2023/09/14 12:12:51;;;;;;;3.05;0.80;;;;;;;;;;5080677;28;20055;-85
2023/09/14 12:15:18;;;;;;;8.35;1.05;;;;;;;;;;5064572;28;20054;-84
2023/09/14 12:17:49;;;;;;;4.03;0.70;;;;;;;;;;5097941;28;20048;-85
2023/09/14 12:20:15;;;;;;;5.07;0.95;;;;;;;;;;5097949;28;20043;-84
2023/09/14 12:22:41;;;;;;;6.07;1.15;;;;;;;;;;5081470;28;20497;-84
2023/09/14 12:25:07;;;;;;;3.28;1.00;;;;;;;;;;5078108;28;20047;-84
2023/09/14 12:27:35;;;;;;;4.32;1.17;;;;;;;;;;5061093;28;20043;-84
2023/09/14 12:30:05;;;;;;;6.47;1.15;;;;;;;;;;5077721;28;20487;-84
2023/09/14 12:32:31;;;;;;;4.45;1.20;;;;;;;;;;5077862;28;20087;-84
2023/09/14 12:34:57;;;;;;;5.00;0.93;;;;;;;;;;5060960;28;20047;-85
2023/09/14 12:37:23;;;;;;;15.48;1.33;;;;;;;;;;5060018;28;20055;-85
2023/09/14 12:39:51;;;;;;;5.30;0.88;;;;;;;;;;5060386;28;20525;-85
2023/09/14 12:42:19;;;;;;;11.15;1.10;;;;;;;;;;5062085;28;20056;-85
2023/09/14 12:44:47;;;;;;;5.03;0.80;;;;;;;;;;5057083;28;20071;-85
2023/09/14 12:47:13;;;;;;;2.72;0.70;;;;;;;;;;5040683;28;20094;-85
2023/09/14 12:49:39;;;;;;;4.10;0.60;;;;;;;;;;5040898;28;20044;-85
2023/09/14 12:52:06;;;;;;;3.67;0.60;;;;;;;;;;5041248;28;20091;-84
2023/09/14 12:54:33;;;;;;;3.67;1.10;;;;;;;;;;5041108;28;20461;-85
2023/09/14 12:56:59;;;;;;;4.47;0.82;;;;;;;;;;5040416;28;20075;-85
2023/09/14 12:59:26;;;;;;;4.65;0.77;;;;;;;;;;5040361;28;20135;-85
2023/09/14 13:01:52;;;;;;;5.63;0.75;;;;;;;;;;5057078;28;20506;-85
2023/09/14 13:04:18;;;;;;;3.88;1.00;;;;;;;;;;5056898;28;20088;-85
2023/09/14 13:06:44;;;;;;;3.22;0.95;;;;;;;;;;5056975;28;20548;-85
2023/09/14 13:09:15;;;;;;;2.15;0.60;;;;;;;;;;5057477;28;20139;-85
2023/09/14 13:11:50;;;;;;;4.20;0.70;;;;;;;;;;5057615;28;20389;-85
2023/09/14 13:14:21;;;;;;;2.88;0.70;;;;;;;;;;5057727;28;20091;-85
2023/09/14 13:16:58;;;;;;;5.82;0.75;;;;;;;;;;5040815;28;20044;-85
2023/09/14 13:19:25;;;;;;;2.95;0.95;;;;;;;;;;5056898;28;20523;-85
2023/09/14 13:21:51;;;;;;;3.25;0.77;;;;;;;;;;5056733;28;20090;-85
2023/09/14 13:24:18;;;;;;;3.03;0.70;;;;;;;;;;5040760;28;20056;-84
2023/09/14 13:26:44;;;;;;;3.85;1.00;;;;;;;;;;5044640;28;20051;-85
2023/09/14 13:29:10;;;;;;;3.60;1.00;;;;;;;;;;5043797;28;20090;-84
2023/09/14 13:31:38;;;;;;;4.05;0.90;;;;;;;;;;5060854;28;20060;-84
2023/09/14 13:34:04;;;;;;;2.03;0.73;;;;;;;;;;5060451;28;20047;-84
2023/09/14 13:36:30;;;;;;;7.20;0.90;;;;;;;;;;5060606;28;20484;-85
2023/09/14 13:38:57;;;;;;;4.03;1.00;;;;;;;;;;5044418;28;20051;-85
2023/09/14 13:41:23;;;;;;;1.80;0.80;;;;;;;;;;5044207;28;20056;-85
2023/09/14 13:43:49;;;;;;;3.28;0.90;;;;;;;;;;5044374;28;20466;-86
2023/09/14 13:46:15;;;;;;;3.10;1.08;;;;;;;;;;5044216;28;20048;-85
2023/09/14 13:48:41;;;;;;;4.13;0.95;;;;;;;;;;5044522;28;20055;-85
2023/09/14 13:51:11;;;;;;;3.65;1.10;;;;;;;;;;5044292;28;20056;-85
2023/09/14 13:53:37;;;;;;;4.70;0.90;;;;;;;;;;5044172;28;20480;-85
2023/09/14 13:56:03;;;;;;;6.13;1.00;;;;;;;;;;5043925;28;20048;-85
2023/09/14 13:58:29;;;;;;;3.08;0.90;;;;;;;;;;5043686;28;20075;-85
2023/09/14 14:00:55;;;;;;;4.30;0.98;;;;;;;;;;5043082;28;20158;-85
2023/09/14 14:03:21;;;;;;;3.90;0.88;;;;;;;;;;5044076;28;20060;-85
2023/09/14 14:05:47;;;;;;;3.42;1.20;;;;;;;;;;5060282;28;20488;-85
2023/09/14 14:08:15;;;;;;;4.93;1.08;;;;;;;;;;5044657;28;20427;-84
2023/09/14 14:10:41;;;;;;;4.20;1.00;;;;;;;;;;5043868;28;20435;-87
2023/09/14 14:13:07;;;;;;;3.35;1.40;;;;;;;;;;5078588;28;20056;-84
2023/09/14 14:15:33;;;;;;;4.97;1.00;;;;;;;;;;5043683;28;20138;-85
2023/09/14 14:17:59;;;;;;;7.75;1.00;;;;;;;;;;5060984;28;20106;-85
2023/09/14 14:20:25;;;;;;;3.75;1.20;;;;;;;;;;5059594;28;20041;-85
2023/09/14 14:22:52;;;;;;;5.47;2.13;;;;;;;;;;5065805;28;20044;-84
2023/09/14 14:25:18;;;;;;;3.95;1.73;;;;;;;;;;5079385;28;20052;-84
2023/09/14 14:27:44;;;;;;;7.85;1.02;;;;;;;;;;5075572;28;20036;-84
2023/09/14 14:30:11;;;;;;;3.35;0.90;;;;;;;;;;5062343;28;20050;-84
2023/09/14 14:32:38;;;;;;;13.45;5.55;;;;;;;;;;5056996;28;20148;-84
2023/09/14 14:35:05;;;;;;;5.63;1.08;;;;;;;;;;5078584;28;20051;-84
2023/09/14 14:37:31;;;;;;;5.88;1.40;;;;;;;;;;5083805;28;20075;-84
2023/09/14 14:39:57;;;;;;;20.98;9.80;;;;;;;;;;5098807;28;20510;-84
2023/09/14 14:42:23;;;;;;;4.65;1.13;;;;;;;;;;5098688;28;20053;-84
2023/09/14 14:44:49;;;;;;;5.30;1.60;;;;;;;;;;5098254;28;20059;-84
2023/09/14 14:47:17;;;;;;;3.00;1.20;;;;;;;;;;5099154;28;20047;-85